createdAt,value
2023-05-22T00:01:37.805Z,99561.38
2023-05-22T00:03:40.814Z,99559.00
2023-05-22T00:05:42.403Z,99559.78
2023-05-22T00:07:44.246Z,99561.91
2023-05-22T00:09:46.579Z,99566.19
2023-05-22T00:11:48.134Z,99559.75
2023-05-22T00:13:49.877Z,99555.50
2023-05-22T00:15:51.550Z,99558.97
2023-05-22T00:17:54.360Z,99556.25
2023-05-22T00:19:56.194Z,99551.47
2023-05-22T00:21:57.856Z,99548.00
2023-05-22T00:23:59.418Z,99549.06
2023-05-22T00:26:01.273Z,99544.78
2023-05-22T00:28:03.122Z,99549.56
2023-05-22T00:30:08.725Z,99546.66
2023-05-22T00:32:10.456Z,99539.19
2023-05-22T00:34:12.053Z,99542.09
2023-05-22T00:36:13.803Z,99537.78
2023-05-22T00:38:30.616Z,99542.59
2023-05-22T00:40:32.274Z,99534.31
2023-05-22T00:42:33.936Z,99534.06
2023-05-22T00:44:35.685Z,99531.66
2023-05-22T00:46:38.111Z,99528.97
2023-05-22T00:48:39.782Z,99529.50
2023-05-22T00:50:42.482Z,99523.66
2023-05-22T00:52:46.541Z,99528.97
2023-05-22T00:54:50.386Z,99526.28
2023-05-22T00:56:52.089Z,99527.63
2023-05-22T00:58:53.681Z,99535.06
2023-05-22T01:00:57.059Z,99538.25
2023-05-22T01:02:59.545Z,99531.81
2023-05-22T01:05:06.905Z,99530.75
2023-05-22T01:07:08.467Z,99529.16
2023-05-22T01:09:10.109Z,99526.78
2023-05-22T01:11:33.350Z,99524.63
2023-05-22T01:14:00.004Z,99524.09
2023-05-22T01:16:30.216Z,99526.50
2023-05-22T01:19:06.442Z,99515.31
2023-05-22T01:21:23.822Z,99521.69
2023-05-22T01:23:55.364Z,99517.16
2023-05-22T01:26:09.981Z,99516.34
2023-05-22T01:28:33.264Z,99526.50
2023-05-22T01:30:49.463Z,99529.41
2023-05-22T01:32:54.284Z,99528.88
2023-05-22T01:34:59.777Z,99528.06
2023-05-22T01:37:02.513Z,99527.00
2023-05-22T01:39:06.631Z,99516.59
2023-05-22T01:41:09.009Z,99520.06
2023-05-22T01:43:10.933Z,99527.81
2023-05-22T01:45:14.483Z,99520.88
2023-05-22T01:47:16.880Z,99531.81
2023-05-22T01:49:18.734Z,99529.91
2023-05-22T01:51:39.023Z,99528.06
2023-05-22T01:53:48.209Z,99530.19
2023-05-22T01:56:05.290Z,99532.88
2023-05-22T01:58:26.324Z,99528.03
2023-05-22T02:00:29.785Z,99533.06
2023-05-22T02:02:32.777Z,99526.91
2023-05-22T02:04:42.374Z,99523.72
2023-05-22T02:06:44.624Z,99531.66
2023-05-22T02:08:46.734Z,99531.94
2023-05-22T02:10:50.174Z,99528.72
2023-05-22T02:12:51.924Z,99530.59
2023-05-22T02:14:54.106Z,99522.34
2023-05-22T02:16:56.812Z,99525.56
2023-05-22T02:19:07.827Z,99525.28
2023-05-22T02:21:09.582Z,99521.56
2023-05-22T02:23:11.242Z,99517.28
2023-05-22T02:25:17.279Z,99521.81
2023-05-22T02:27:19.184Z,99526.56
2023-05-22T02:29:20.896Z,99519.66
2023-05-22T02:31:22.657Z,99516.19
2023-05-22T02:33:24.299Z,99517.47
2023-05-22T02:35:25.896Z,99514.53
2023-05-22T02:37:27.543Z,99511.00
2023-05-22T02:39:29.877Z,99520.84
2023-05-22T02:41:31.472Z,99507.53
2023-05-22T02:43:33.051Z,99509.09
2023-05-22T02:45:34.661Z,99514.41
2023-05-22T02:47:36.224Z,99511.75
2023-05-22T02:49:37.782Z,99506.19
2023-05-22T02:51:39.484Z,99509.09
2023-05-22T02:53:41.622Z,99499.50
2023-05-22T02:55:43.436Z,99503.47
2023-05-22T02:57:45.018Z,99509.63
2023-05-22T02:59:46.565Z,99504.81
2023-05-22T03:01:48.574Z,99496.31
2023-05-22T03:03:50.621Z,99493.34
2023-05-22T03:05:58.432Z,99495.19
2023-05-22T03:08:00.126Z,99495.72
2023-05-22T03:10:01.756Z,99497.00
2023-05-22T03:12:04.925Z,99503.66
2023-05-22T03:14:06.666Z,99497.53
2023-05-22T03:16:08.394Z,99503.94
2023-05-22T03:18:10.143Z,99494.84
2023-05-22T03:20:16.838Z,99492.66
2023-05-22T03:22:19.115Z,99502.53
2023-05-22T03:24:21.226Z,99497.72
2023-05-22T03:26:22.814Z,99499.59
2023-05-22T03:28:27.230Z,99496.88
2023-05-22T03:30:28.819Z,99502.75
2023-05-22T03:32:30.406Z,99497.94
2023-05-22T03:34:32.449Z,99498.19
2023-05-22T03:36:34.238Z,99488.06
2023-05-22T03:38:35.767Z,99494.44
2023-05-22T03:40:37.715Z,99495.25
2023-05-22T03:42:39.492Z,99494.44
2023-05-22T03:44:41.076Z,99487.25
2023-05-22T03:46:42.761Z,99493.63
2023-05-22T03:48:44.297Z,99493.09
2023-05-22T03:50:45.922Z,99496.53
2023-05-22T03:52:47.568Z,99499.19
2023-05-22T03:54:49.167Z,99492.81
2023-05-22T03:56:51.431Z,99490.97
2023-05-22T03:58:53.029Z,99495.25
2023-05-22T04:00:58.681Z,99492.59
2023-05-22T04:03:06.896Z,99494.72
2023-05-22T04:05:09.972Z,99497.13
2023-05-22T04:07:13.175Z,99489.66
2023-05-22T04:09:15.267Z,99493.69
2023-05-22T04:11:16.992Z,99497.94
2023-05-22T04:13:21.400Z,99499.53
2023-05-22T04:15:24.087Z,99492.91
2023-05-22T04:17:32.383Z,99496.13
2023-05-22T04:19:34.085Z,99497.97
2023-05-22T04:21:35.956Z,99496.41
2023-05-22T04:23:38.654Z,99500.66
2023-05-22T04:25:40.409Z,99491.91
2023-05-22T04:27:42.481Z,99492.72
2023-05-22T04:29:45.222Z,99488.75
2023-05-22T04:31:47.744Z,99491.66
2023-05-22T04:33:49.947Z,99492.78
2023-05-22T04:35:51.991Z,99491.44
2023-05-22T04:37:53.555Z,99482.69
2023-05-22T04:39:58.407Z,99495.50
2023-05-22T04:42:05.728Z,99493.88
2023-05-22T04:44:07.913Z,99495.72
2023-05-22T04:46:09.608Z,99498.19
2023-05-22T04:48:12.043Z,99502.19
2023-05-22T04:50:14.353Z,99497.41
2023-05-22T04:52:15.927Z,99493.72
2023-05-22T04:54:17.504Z,99501.75
2023-05-22T04:56:31.939Z,99491.13
2023-05-22T04:58:37.909Z,99496.44
2023-05-22T05:00:39.721Z,99495.66
2023-05-22T05:02:41.801Z,99485.56
2023-05-22T05:04:43.593Z,99485.06
2023-05-22T05:06:45.387Z,99486.13
2023-05-22T05:08:48.036Z,99480.25
2023-05-22T05:10:49.565Z,99484.28
2023-05-22T05:12:51.148Z,99480.63
2023-05-22T05:14:52.879Z,99476.91
2023-05-22T05:16:54.770Z,99477.94
2023-05-22T05:18:56.533Z,99484.38
2023-05-22T05:20:58.469Z,99476.66
2023-05-22T05:23:00.082Z,99477.22
2023-05-22T05:25:01.939Z,99477.75
2023-05-22T05:27:03.635Z,99481.00
2023-05-22T05:29:05.186Z,99481.25
2023-05-22T05:31:07.814Z,99481.00
2023-05-22T05:33:09.439Z,99480.47
2023-05-22T05:35:11.102Z,99478.09
2023-05-22T05:37:12.675Z,99474.91
2023-05-22T05:39:14.238Z,99483.19
2023-05-22T05:41:15.907Z,99482.13
2023-05-22T05:43:17.496Z,99482.66
2023-05-22T05:45:19.078Z,99483.50
2023-05-22T05:47:24.166Z,99486.13
2023-05-22T05:49:26.099Z,99486.69
2023-05-22T05:51:27.748Z,99492.56
2023-05-22T05:53:29.316Z,99491.78
2023-05-22T05:55:33.340Z,99492.88
2023-05-22T05:57:36.172Z,99495.81
2023-05-22T05:59:37.731Z,99498.47
2023-05-22T06:01:44.563Z,99496.31
2023-05-22T06:03:46.479Z,99495.28
2023-05-22T06:05:48.624Z,99498.19
2023-05-22T06:07:53.111Z,99497.13
2023-05-22T06:09:54.708Z,99492.03
2023-05-22T06:11:56.410Z,99496.81
2023-05-22T06:13:59.419Z,99502.13
2023-05-22T06:16:03.551Z,99499.75
2023-05-22T06:18:07.351Z,99498.66
2023-05-22T06:20:09.402Z,99503.16
2023-05-22T06:22:11.186Z,99495.16
2023-05-22T06:24:12.802Z,99507.69
2023-05-22T06:26:15.061Z,99505.56
2023-05-22T06:28:16.880Z,99505.84
2023-05-22T06:30:28.317Z,99517.59
2023-05-22T06:32:40.240Z,99513.56
2023-05-22T06:34:44.382Z,99507.66
2023-05-22T06:36:46.093Z,99513.03
2023-05-22T06:38:49.627Z,99503.97
2023-05-22T06:40:51.225Z,99505.56
2023-05-22T06:42:53.237Z,99506.88
2023-05-22T06:44:54.835Z,99511.94
2023-05-22T06:46:57.173Z,99507.69
2023-05-22T06:48:58.750Z,99512.69
2023-05-22T06:51:00.404Z,99524.19
2023-05-22T06:53:05.009Z,99523.06
2023-05-22T06:55:07.358Z,99518.22
2023-05-22T06:57:09.678Z,99519.88
2023-05-22T06:59:12.106Z,99518.53
2023-05-22T07:01:13.807Z,99518.97
2023-05-22T07:03:16.103Z,99523.75
2023-05-22T07:05:18.038Z,99525.13
2023-05-22T07:07:19.759Z,99535.53
2023-05-22T07:09:21.371Z,99531.53
2023-05-22T07:11:22.990Z,99528.22
2023-05-22T07:13:24.992Z,99526.00
2023-05-22T07:15:26.559Z,99530.09
2023-05-22T07:17:28.275Z,99530.00
2023-05-22T07:19:29.950Z,99537.75
2023-05-22T07:21:32.567Z,99538.44
2023-05-22T07:23:34.142Z,99536.47
2023-05-22T07:25:35.991Z,99533.13
2023-05-22T07:27:37.702Z,99535.19
2023-05-22T07:29:39.414Z,99541.88
2023-05-22T07:31:42.187Z,99533.84
2023-05-22T07:33:43.796Z,99543.38
2023-05-22T07:35:46.276Z,99548.63
2023-05-22T07:37:47.867Z,99546.75
2023-05-22T07:39:49.416Z,99545.81
2023-05-22T07:41:51.075Z,99545.25
2023-05-22T07:43:52.967Z,99542.44
2023-05-22T07:45:54.586Z,99544.81
2023-05-22T07:47:58.962Z,99543.41
2023-05-22T07:50:04.132Z,99551.81
2023-05-22T07:52:06.360Z,99547.66
2023-05-22T07:54:08.249Z,99548.66
2023-05-22T07:56:09.960Z,99545.72
2023-05-22T07:58:11.576Z,99544.34
2023-05-22T08:00:14.552Z,99549.47
2023-05-22T08:02:17.917Z,99553.06
2023-05-22T08:04:19.765Z,99555.16
2023-05-22T08:06:23.733Z,99559.44
2023-05-22T08:08:25.516Z,99556.88
2023-05-22T08:10:30.096Z,99556.88
2023-05-22T08:12:39.109Z,99564.03
2023-05-22T08:14:40.791Z,99567.13
2023-05-22T08:16:42.469Z,99559.53
2023-05-22T08:18:44.150Z,99557.97
2023-05-22T08:20:47.423Z,99556.66
2023-05-22T08:22:49.420Z,99558.97
2023-05-22T08:24:51.284Z,99555.75
2023-05-22T08:26:52.836Z,99559.22
2023-05-22T08:28:54.460Z,99558.84
2023-05-22T08:30:56.097Z,99556.41
2023-05-22T08:32:57.787Z,99560.78
2023-05-22T08:34:59.573Z,99564.75
2023-05-22T08:37:01.245Z,99571.09
2023-05-22T08:39:03.712Z,99558.34
2023-05-22T08:41:07.173Z,99568.53
2023-05-22T08:43:09.437Z,99556.09
2023-05-22T08:45:11.341Z,99555.25
2023-05-22T08:47:14.101Z,99562.84
2023-05-22T08:49:17.267Z,99551.53
2023-05-22T08:51:19.785Z,99551.41
2023-05-22T08:53:24.034Z,99564.88
2023-05-22T08:55:26.822Z,99558.19
2023-05-22T08:57:29.694Z,99557.00
2023-05-22T08:59:31.619Z,99559.47
2023-05-22T09:01:37.836Z,99556.13
2023-05-22T09:03:39.671Z,99551.31
2023-05-22T09:05:41.652Z,99558.44
2023-05-22T09:07:43.679Z,99562.66
2023-05-22T09:09:45.319Z,99555.25
2023-05-22T09:11:46.968Z,99557.34
2023-05-22T09:13:49.933Z,99555.72
2023-05-22T09:15:51.484Z,99556.63
2023-05-22T09:17:54.322Z,99564.03
2023-05-22T09:20:00.111Z,99562.00
2023-05-22T09:22:06.366Z,99556.53
2023-05-22T09:24:11.111Z,99550.56
2023-05-22T09:26:12.771Z,99560.53
2023-05-22T09:28:14.489Z,99563.91
2023-05-22T09:30:19.453Z,99565.63
2023-05-22T09:32:21.692Z,99557.66
2023-05-22T09:34:29.051Z,99565.44
2023-05-22T09:36:33.270Z,99564.44
2023-05-22T09:38:34.940Z,99566.66
2023-05-22T09:40:39.363Z,99561.06
2023-05-22T09:42:47.422Z,99561.94
2023-05-22T09:44:50.020Z,99566.84
2023-05-22T09:46:51.757Z,99564.84
2023-05-22T09:48:54.262Z,99560.78
2023-05-22T09:50:59.893Z,99570.47
2023-05-22T09:53:03.223Z,99558.19
2023-05-22T09:55:07.253Z,99553.88
2023-05-22T09:57:14.117Z,99557.84
2023-05-22T09:59:26.649Z,99552.84
2023-05-22T10:01:28.978Z,99558.69
2023-05-22T10:03:31.958Z,99552.78
2023-05-22T10:05:36.043Z,99556.63
2023-05-22T10:07:46.046Z,99559.22
2023-05-22T10:09:52.716Z,99552.75
2023-05-22T10:11:56.922Z,99552.31
2023-05-22T10:14:00.807Z,99557.03
2023-05-22T10:16:04.621Z,99560.22
2023-05-22T10:18:09.848Z,99559.94
2023-05-22T10:20:12.752Z,99556.19
2023-05-22T10:22:20.773Z,99559.56
2023-05-22T10:24:24.403Z,99551.47
2023-05-22T10:26:27.088Z,99554.00
2023-05-22T10:28:38.532Z,99559.19
2023-05-22T10:30:40.769Z,99550.00
2023-05-22T10:32:50.752Z,99556.03
2023-05-22T10:35:32.785Z,99555.56
2023-05-22T10:37:42.025Z,99560.69
2023-05-22T10:40:07.414Z,99549.41
2023-05-22T10:42:16.331Z,99546.16
2023-05-22T10:44:18.859Z,99554.19
2023-05-22T10:46:20.658Z,99544.34
2023-05-22T10:48:23.289Z,99550.81
2023-05-22T10:50:24.976Z,99540.66
2023-05-22T10:52:26.607Z,99556.41
2023-05-22T10:54:53.640Z,99548.97
2023-05-22T10:57:09.889Z,99538.25
2023-05-22T10:59:11.460Z,99539.53
2023-05-22T11:01:18.230Z,99536.81
2023-05-22T11:03:21.325Z,99532.84
2023-05-22T11:05:23.170Z,99537.94
2023-05-22T11:07:24.819Z,99539.03
2023-05-22T11:09:30.867Z,99540.00
2023-05-22T11:11:32.564Z,99534.31
2023-05-22T11:13:34.524Z,99532.72
2023-05-22T11:15:36.154Z,99525.22
2023-05-22T11:17:43.076Z,99534.06
2023-05-22T11:19:47.970Z,99531.53
2023-05-22T11:21:49.685Z,99529.56
2023-05-22T11:23:51.422Z,99530.50
2023-05-22T11:25:53.114Z,99526.59
2023-05-22T11:27:56.268Z,99534.34
2023-05-22T11:29:59.787Z,99528.94
2023-05-22T11:32:02.051Z,99529.13
2023-05-22T11:34:04.331Z,99526.47
2023-05-22T11:36:06.301Z,99521.00
2023-05-22T11:38:08.818Z,99522.63
2023-05-22T11:40:11.618Z,99526.53
2023-05-22T11:42:13.218Z,99522.78
2023-05-22T11:44:14.799Z,99514.97
2023-05-22T11:46:16.664Z,99509.56
2023-05-22T11:48:20.341Z,99513.75
2023-05-22T11:50:40.311Z,99513.53
2023-05-22T11:52:46.817Z,99508.03
2023-05-22T11:54:49.038Z,99508.75
2023-05-22T11:56:50.691Z,99507.72
2023-05-22T11:58:52.253Z,99500.56
2023-05-22T12:00:58.070Z,99517.97
2023-05-22T12:02:59.891Z,99497.22
2023-05-22T12:05:01.733Z,99489.63
2023-05-22T12:07:03.938Z,99489.06
2023-05-22T12:09:07.273Z,99492.94
2023-05-22T12:11:11.865Z,99500.34
2023-05-22T12:13:13.456Z,99489.97
2023-05-22T12:15:19.231Z,99493.34
2023-05-22T12:17:20.900Z,99494.69
2023-05-22T12:19:22.555Z,99496.28
2023-05-22T12:21:24.213Z,99501.06
2023-05-22T12:23:26.771Z,99489.25
2023-05-22T12:25:35.853Z,99484.94
2023-05-22T12:27:41.771Z,99483.84
2023-05-22T12:29:43.534Z,99502.44
2023-05-22T12:32:04.576Z,99497.94
2023-05-22T12:34:11.423Z,99496.22
2023-05-22T12:36:13.047Z,99502.00
2023-05-22T12:38:14.672Z,99500.44
2023-05-22T12:40:16.438Z,99500.53
2023-05-22T12:42:18.107Z,99516.06
2023-05-22T12:44:19.732Z,99509.63
2023-05-22T12:46:21.404Z,99504.97
2023-05-22T12:48:23.164Z,99521.78
2023-05-22T12:50:24.942Z,99502.75
2023-05-22T12:52:26.544Z,99509.34
2023-05-22T12:54:28.134Z,99512.16
2023-05-22T12:56:30.698Z,99513.59
2023-05-22T12:58:32.320Z,99516.53
2023-05-22T13:00:34.862Z,99522.94
2023-05-22T13:02:36.689Z,99526.06
2023-05-22T13:04:38.391Z,99513.31
2023-05-22T13:06:39.985Z,99516.69
2023-05-22T13:08:41.611Z,99527.38
2023-05-22T13:10:43.270Z,99522.88
2023-05-22T13:12:47.280Z,99514.91
2023-05-22T13:14:48.865Z,99521.84
2023-05-22T13:16:50.676Z,99519.13
2023-05-22T13:18:52.363Z,99508.72
2023-05-22T13:20:56.277Z,99512.94
2023-05-22T13:22:57.920Z,99511.06
2023-05-22T13:24:59.534Z,99514.69
2023-05-22T13:27:01.878Z,99517.97
2023-05-22T13:29:04.398Z,99510.50
2023-05-22T13:31:06.067Z,99497.84
2023-05-22T13:33:07.713Z,99495.38
2023-05-22T13:35:09.695Z,99498.47
2023-05-22T13:37:11.605Z,99495.22
2023-05-22T13:39:14.848Z,99491.69
2023-05-22T13:41:17.769Z,99484.84
2023-05-22T13:43:19.474Z,99490.88
2023-05-22T13:45:21.133Z,99492.66
2023-05-22T13:47:23.363Z,99483.38
2023-05-22T13:49:25.214Z,99489.09
2023-05-22T13:51:26.764Z,99489.72
2023-05-22T13:53:28.501Z,99486.19
2023-05-22T13:55:30.136Z,99479.41
2023-05-22T13:57:31.844Z,99479.00
2023-05-22T13:59:33.450Z,99481.53
2023-05-22T14:01:35.056Z,99493.22
2023-05-22T14:03:36.727Z,99487.34
2023-05-22T14:05:38.576Z,99482.69
2023-05-22T14:07:40.300Z,99482.94
2023-05-22T14:09:42.402Z,99472.19
2023-05-22T14:11:44.097Z,99478.66
2023-05-22T14:13:45.688Z,99480.75
2023-05-22T14:15:47.455Z,99477.34
2023-05-22T14:17:49.058Z,99480.50
2023-05-22T14:19:50.746Z,99488.50
2023-05-22T14:21:52.347Z,99474.25
2023-05-22T14:23:56.265Z,99480.59
2023-05-22T14:25:58.296Z,99485.06
2023-05-22T14:27:59.867Z,99491.03
2023-05-22T14:30:01.504Z,99491.13
2023-05-22T14:32:04.905Z,99488.38
2023-05-22T14:34:06.505Z,99483.00
2023-05-22T14:36:08.526Z,99483.28
2023-05-22T14:38:10.402Z,99482.59
2023-05-22T14:40:11.992Z,99481.75
2023-05-22T14:42:13.603Z,99472.81
2023-05-22T14:44:15.236Z,99471.50
2023-05-22T14:46:16.830Z,99475.00
2023-05-22T14:48:18.635Z,99479.41
2023-05-22T14:50:20.988Z,99470.19
2023-05-22T14:52:22.724Z,99470.41
2023-05-22T14:54:24.517Z,99478.66
2023-05-22T14:56:26.662Z,99475.31
2023-05-22T14:58:28.413Z,99471.78
2023-05-22T15:00:29.992Z,99466.38
2023-05-22T15:02:31.607Z,99467.53
2023-05-22T15:04:33.340Z,99459.13
2023-05-22T15:06:35.436Z,99463.38
2023-05-22T15:08:37.113Z,99460.50
2023-05-22T15:10:38.717Z,99454.88
2023-05-22T15:12:40.614Z,99457.97
2023-05-22T15:14:42.215Z,99457.25
2023-05-22T15:16:43.943Z,99452.78
2023-05-22T15:18:45.647Z,99452.19
2023-05-22T15:20:48.948Z,99461.44
2023-05-22T15:22:50.521Z,99462.31
2023-05-22T15:25:15.147Z,99462.44
2023-05-22T15:27:17.553Z,99462.44
2023-05-22T15:29:19.195Z,99473.75
2023-05-22T15:31:20.994Z,99490.28
2023-05-22T15:33:22.668Z,99473.75
2023-05-22T15:35:24.430Z,99471.53
2023-05-22T15:37:25.994Z,99489.66
2023-05-22T15:39:27.579Z,99481.31
2023-05-22T15:41:29.279Z,99487.63
2023-05-22T15:43:31.015Z,99488.94
2023-05-22T15:45:34.104Z,99490.91
2023-05-22T15:47:35.803Z,99486.97
2023-05-22T15:49:37.379Z,99493.34
2023-05-22T15:51:39.089Z,99488.81
2023-05-22T15:53:41.029Z,99494.84
2023-05-22T15:55:42.646Z,99493.75
2023-05-22T15:57:47.085Z,99505.66
2023-05-22T15:59:50.755Z,99482.13
2023-05-22T16:01:52.496Z,99495.94
2023-05-22T16:03:54.084Z,99488.94
2023-05-22T16:05:55.686Z,99500.50
2023-05-22T16:07:57.248Z,99499.81
2023-05-22T16:09:59.001Z,99490.81
2023-05-22T16:12:00.628Z,99496.31
2023-05-22T16:14:02.200Z,99495.47
2023-05-22T16:16:05.953Z,99499.72
2023-05-22T16:18:08.536Z,99495.84
2023-05-22T16:20:10.356Z,99483.88
2023-05-22T16:22:12.108Z,99478.38
2023-05-22T16:24:13.680Z,99480.91
2023-05-22T16:26:15.551Z,99475.09
2023-05-22T16:28:17.195Z,99485.06
2023-05-22T16:30:19.542Z,99486.59
2023-05-22T16:32:21.180Z,99488.47
2023-05-22T16:34:22.761Z,99479.13
2023-05-22T16:36:27.034Z,99468.06
2023-05-22T16:38:28.922Z,99478.75
2023-05-22T16:40:30.800Z,99473.06
2023-05-22T16:42:32.390Z,99476.16
2023-05-22T16:44:34.044Z,99479.19
2023-05-22T16:46:35.892Z,99476.19
2023-05-22T16:48:37.549Z,99476.47
2023-05-22T16:50:42.409Z,99472.69
2023-05-22T16:52:43.990Z,99500.25
2023-05-22T16:54:45.618Z,99502.53
2023-05-22T16:56:47.187Z,99513.34
2023-05-22T16:58:48.748Z,99507.81
2023-05-22T17:00:50.701Z,99486.91
2023-05-22T17:02:52.817Z,99488.09
2023-05-22T17:04:54.625Z,99484.97
2023-05-22T17:06:56.285Z,99500.25
2023-05-22T17:08:57.946Z,99481.78
2023-05-22T17:10:59.545Z,99483.44
2023-05-22T17:13:01.176Z,99480.13
2023-05-22T17:15:02.844Z,99475.81
2023-05-22T17:17:04.620Z,99470.47
2023-05-22T17:19:06.481Z,99495.06
2023-05-22T17:21:09.246Z,99519.78
2023-05-22T17:23:11.043Z,99521.59
2023-05-22T17:25:13.515Z,99527.47
2023-05-22T17:27:24.283Z,99534.63
2023-05-22T17:29:36.308Z,99536.25
2023-05-22T17:31:39.412Z,99523.47
2023-05-22T17:33:41.584Z,99526.09
2023-05-22T17:35:43.215Z,99529.00
2023-05-22T17:37:44.829Z,99542.66
2023-05-22T17:39:46.414Z,99538.03
2023-05-22T17:41:48.007Z,99546.38
2023-05-22T17:43:49.712Z,99546.63
2023-05-22T17:45:51.394Z,99552.78
2023-05-22T17:47:53.071Z,99563.25
2023-05-22T17:49:54.795Z,99564.03
2023-05-22T17:51:56.468Z,99558.44
2023-05-22T17:53:59.087Z,99560.63
2023-05-22T17:56:01.355Z,99560.38
2023-05-22T17:58:02.914Z,99563.63
2023-05-22T18:00:10.104Z,99573.59
2023-05-22T18:02:11.742Z,99572.28
2023-05-22T18:04:13.353Z,99579.06
2023-05-22T18:06:15.099Z,99592.41
2023-05-22T18:08:17.996Z,99585.22
2023-05-22T18:10:23.046Z,99584.50
2023-05-22T18:12:31.811Z,99581.94
2023-05-22T18:14:33.877Z,99594.72
2023-05-22T18:16:35.615Z,99590.63
2023-05-22T18:18:37.240Z,99597.34
2023-05-22T18:20:39.169Z,99593.03
2023-05-22T18:22:41.092Z,99603.53
2023-05-22T18:24:42.801Z,99597.69
2023-05-22T18:26:44.396Z,99604.13
2023-05-22T18:28:48.250Z,99609.22
2023-05-22T18:30:52.424Z,99613.00
2023-05-22T18:32:54.094Z,99616.47
2023-05-22T18:34:55.770Z,99617.59
2023-05-22T18:36:57.482Z,99613.91
2023-05-22T18:38:59.071Z,99613.31
2023-05-22T18:41:00.726Z,99624.88
2023-05-22T18:43:02.280Z,99632.44
2023-05-22T18:45:05.804Z,99626.91
2023-05-22T18:47:07.685Z,99629.09
2023-05-22T18:49:09.374Z,99630.72
2023-05-22T18:51:10.978Z,99634.56
2023-05-22T18:53:12.546Z,99640.97
2023-05-22T18:55:14.096Z,99645.00
2023-05-22T18:57:15.686Z,99636.66
2023-05-22T18:59:17.592Z,99643.06
2023-05-22T19:01:19.343Z,99635.59
2023-05-22T19:03:21.089Z,99637.22
2023-05-22T19:05:23.000Z,99637.50
2023-05-22T19:07:24.657Z,99641.50
2023-05-22T19:09:26.283Z,99646.25
2023-05-22T19:11:27.863Z,99646.81
2023-05-22T19:13:29.503Z,99645.38
2023-05-22T19:15:31.377Z,99640.88
2023-05-22T19:17:32.978Z,99639.25
2023-05-22T19:19:34.910Z,99643.06
2023-05-22T19:21:39.790Z,99652.97
2023-05-22T19:23:41.469Z,99645.25
2023-05-22T19:25:43.034Z,99647.88
2023-05-22T19:27:44.829Z,99650.34
2023-05-22T19:29:46.400Z,99655.09
2023-05-22T19:31:48.053Z,99653.78
2023-05-22T19:33:49.613Z,99659.78
2023-05-22T19:35:51.410Z,99661.16
2023-05-22T19:37:53.141Z,99658.50
2023-05-22T19:39:54.894Z,99667.88
2023-05-22T19:41:56.493Z,99669.78
2023-05-22T19:43:58.116Z,99674.09
2023-05-22T19:45:59.810Z,99670.59
2023-05-22T19:48:01.457Z,99678.91
2023-05-22T19:50:03.819Z,99669.28
2023-05-22T19:52:06.665Z,99672.75
2023-05-22T19:54:08.263Z,99685.03
2023-05-22T19:56:09.932Z,99680.53
2023-05-22T19:58:11.705Z,99681.06
2023-05-22T20:00:13.665Z,99680.28
2023-05-22T20:02:15.322Z,99682.72
2023-05-22T20:04:16.992Z,99682.19
2023-05-22T20:06:18.627Z,99684.63
2023-05-22T20:08:21.665Z,99685.97
2023-05-22T20:10:23.906Z,99687.59
2023-05-22T20:12:25.504Z,99695.09
2023-05-22T20:14:27.107Z,99687.59
2023-05-22T20:16:29.533Z,99692.97
2023-05-22T20:18:33.846Z,99692.44
2023-05-22T20:20:35.488Z,99693.78
2023-05-22T20:22:37.071Z,99685.75
2023-05-22T20:24:39.676Z,99696.19
2023-05-22T20:26:41.251Z,99701.78
2023-05-22T20:28:43.991Z,99693.50
2023-05-22T20:30:45.711Z,99702.88
2023-05-22T20:32:47.329Z,99700.19
2023-05-22T20:34:50.071Z,99699.91
2023-05-22T20:36:52.910Z,99708.47
2023-05-22T20:38:54.603Z,99703.91
2023-05-22T20:40:58.512Z,99704.72
2023-05-22T20:43:03.921Z,99707.69
2023-05-22T20:45:06.199Z,99706.06
2023-05-22T20:47:09.374Z,99701.25
2023-05-22T20:49:12.309Z,99707.94
2023-05-22T20:51:15.773Z,99702.03
2023-05-22T20:53:22.303Z,99700.69
2023-05-22T20:55:25.490Z,99705.78
2023-05-22T20:57:27.100Z,99709.50
2023-05-22T20:59:29.184Z,99707.13
2023-05-22T21:01:31.089Z,99705.53
2023-05-22T21:03:32.719Z,99714.03
2023-05-22T21:05:34.368Z,99712.97
2023-05-22T21:07:36.015Z,99718.84
2023-05-22T21:09:37.729Z,99714.03
2023-05-22T21:11:39.383Z,99711.88
2023-05-22T21:13:41.028Z,99715.34
2023-05-22T21:15:42.658Z,99714.25
2023-05-22T21:17:44.310Z,99715.59
2023-05-22T21:19:46.297Z,99717.19
2023-05-22T21:21:47.890Z,99705.44
2023-05-22T21:23:49.871Z,99718.22
2023-05-22T21:25:51.562Z,99718.44
2023-05-22T21:27:54.535Z,99708.78
2023-05-22T21:29:56.175Z,99707.97
2023-05-22T21:31:57.811Z,99710.38
2023-05-22T21:33:59.457Z,99714.06
2023-05-22T21:36:01.056Z,99715.34
2023-05-22T21:38:02.725Z,99714.78
2023-05-22T21:40:04.543Z,99718.81
2023-05-22T21:42:06.650Z,99726.75
2023-05-22T21:44:09.958Z,99728.06
2023-05-22T21:46:11.584Z,99731.50
2023-05-22T21:48:13.178Z,99735.75
2023-05-22T21:50:14.806Z,99738.88
2023-05-22T21:52:16.388Z,99738.13
2023-05-22T21:54:17.922Z,99738.34
2023-05-22T21:56:19.576Z,99735.69
2023-05-22T21:58:21.127Z,99738.31
2023-05-22T22:00:22.892Z,99736.66
2023-05-22T22:02:24.673Z,99744.91
2023-05-22T22:04:26.296Z,99739.78
2023-05-22T22:06:28.014Z,99743.28
2023-05-22T22:08:29.723Z,99736.78
2023-05-22T22:10:31.308Z,99740.47
2023-05-22T22:12:32.914Z,99742.09
2023-05-22T22:14:34.553Z,99744.97
2023-05-22T22:16:36.369Z,99744.97
2023-05-22T22:18:38.090Z,99749.97
2023-05-22T22:20:44.834Z,99735.28
2023-05-22T22:22:47.047Z,99740.59
2023-05-22T22:24:48.694Z,99742.94
2023-05-22T22:26:50.748Z,99746.38
2023-05-22T22:28:52.598Z,99747.41
2023-05-22T22:30:55.176Z,99745.69
2023-05-22T22:32:57.034Z,99750.81
2023-05-22T22:34:58.690Z,99748.13
2023-05-22T22:37:00.266Z,99750.50
2023-05-22T22:39:01.956Z,99750.63
2023-05-22T22:41:04.789Z,99751.44
2023-05-22T22:43:06.712Z,99753.53
2023-05-22T22:45:09.734Z,99758.84
2023-05-22T22:47:11.410Z,99760.97
2023-05-22T22:49:12.973Z,99758.25
2023-05-22T22:51:14.615Z,99760.69
2023-05-22T22:53:16.248Z,99763.84
2023-05-22T22:55:18.490Z,99761.69
2023-05-22T22:57:20.313Z,99754.97
2023-05-22T22:59:22.024Z,99758.44
2023-05-22T23:01:24.179Z,99761.06
2023-05-22T23:03:27.194Z,99765.28
2023-05-22T23:05:28.891Z,99764.72
2023-05-22T23:07:30.448Z,99771.56
2023-05-22T23:09:32.042Z,99774.75
2023-05-22T23:11:39.974Z,99771.78
2023-05-22T23:13:43.383Z,99784.59
2023-05-22T23:15:45.202Z,99781.06
2023-05-22T23:17:47.332Z,99779.41
2023-05-22T23:19:50.115Z,99780.69
2023-05-22T23:21:51.990Z,99781.50
2023-05-22T23:23:53.546Z,99776.66
2023-05-22T23:25:57.293Z,99785.69
2023-05-22T23:28:00.311Z,99786.50
2023-05-22T23:30:02.820Z,99778.78
2023-05-22T23:32:04.557Z,99779.56
2023-05-22T23:34:06.244Z,99784.56
2023-05-22T23:36:07.860Z,99782.97
2023-05-22T23:38:09.445Z,99781.06
2023-05-22T23:40:11.425Z,99776.47
2023-05-22T23:42:13.026Z,99777.75
2023-05-22T23:44:14.648Z,99773.13
2023-05-22T23:46:16.263Z,99777.53
2023-05-22T23:48:17.877Z,99775.34
2023-05-22T23:50:19.503Z,99773.00
2023-05-22T23:52:21.109Z,99778.06
2023-05-22T23:54:22.749Z,99775.09
2023-05-22T23:56:24.340Z,99768.44
2023-05-22T23:58:26.326Z,99773.31
